SBBG

Comandante Gustavo Kraemer Airport

Bagé, Brazil
METAR SBBG 162000Z 09011KT CAVOK 18/11 Q1025
Observed Flight Rules
Aug-16 @ 20:00 UTC (11 hours ago) Visual Flight Rules
Wind Visibility Clouds
90° at 11 knots 10,000+ meters
  • Clear skies
Temperatures Readings
Current 18°C / 64°F
Dewpoint 11°C / 52°F
Humidity 64%
Altimeter 30.27" Hg
Pressure 1025 hPa
Elevation 180
METAR SBBG 162000Z 09011KT CAVOK 18/11 Q1025
Observed Flight Rules
Aug-16 @ 20:00 UTC
(11 hours ago)
VFR
Wind Visibility
90° at 11 knots 10,000+ meters
Clouds
  • Clear skies
Temperature Dewpoint
18°C / 64°F 11°C / 52°F
Humidity Altimeter Pressure
64% 30.27" Hg 1025 hPa